createdAt,value
2017-11-03T00:00:46.620Z,6.00
2017-11-03T00:03:13.024Z,6.00
2017-11-03T00:05:39.471Z,6.00
2017-11-03T00:08:06.655Z,6.10
2017-11-03T00:10:33.062Z,6.10
2017-11-03T00:13:00.260Z,6.00
2017-11-03T00:15:27.415Z,5.90
2017-11-03T00:17:53.839Z,5.90
2017-11-03T00:20:21.027Z,5.90
2017-11-03T00:22:48.151Z,5.90
2017-11-03T00:25:14.567Z,5.90
2017-11-03T00:27:40.938Z,5.90
2017-11-03T00:30:07.380Z,5.90
2017-11-03T00:32:33.762Z,5.80
2017-11-03T00:35:00.228Z,5.70
2017-11-03T00:37:26.639Z,5.70
2017-11-03T00:39:53.032Z,5.60
2017-11-03T00:42:19.448Z,5.60
2017-11-03T00:44:46.594Z,5.50
2017-11-03T00:47:13.059Z,5.40
2017-11-03T00:49:39.559Z,5.50
2017-11-03T00:52:07.044Z,5.50
2017-11-03T00:54:34.196Z,5.50
2017-11-03T00:57:01.355Z,5.50
2017-11-03T00:59:27.743Z,5.50
2017-11-03T01:01:54.124Z,5.50
2017-11-03T01:04:20.583Z,5.50
2017-11-03T01:06:47.049Z,5.50
2017-11-03T01:09:14.204Z,5.40
2017-11-03T01:11:41.393Z,5.40
2017-11-03T01:14:08.509Z,5.40
2017-11-03T01:16:34.916Z,5.40
2017-11-03T01:19:01.400Z,5.40
2017-11-03T01:21:27.840Z,5.40
2017-11-03T01:23:54.292Z,5.50
2017-11-03T01:26:21.435Z,5.50
2017-11-03T01:28:47.803Z,5.40
2017-11-03T01:31:14.266Z,5.50
2017-11-03T01:33:41.470Z,5.40
2017-11-03T01:36:07.867Z,5.40
2017-11-03T01:38:34.252Z,5.40
2017-11-03T01:41:00.712Z,5.40
2017-11-03T01:43:27.170Z,5.40
2017-11-03T01:45:53.612Z,5.40
2017-11-03T01:48:20.083Z,5.40
2017-11-03T01:50:46.523Z,5.40
2017-11-03T01:53:12.947Z,5.50
2017-11-03T01:55:39.432Z,5.50
2017-11-03T01:58:05.801Z,5.40
2017-11-03T02:00:32.211Z,5.50
2017-11-03T02:02:59.419Z,5.40
2017-11-03T02:05:25.859Z,5.40
2017-11-03T02:07:52.303Z,5.30
2017-11-03T02:10:18.707Z,5.20
2017-11-03T02:12:45.187Z,5.20
2017-11-03T02:15:12.316Z,5.20
2017-11-03T02:17:39.450Z,5.20
2017-11-03T02:20:05.852Z,5.20
2017-11-03T02:22:33.015Z,5.20
2017-11-03T02:24:59.440Z,5.20
2017-11-03T02:27:26.620Z,5.20
2017-11-03T02:29:53.744Z,5.30
2017-11-03T02:32:20.919Z,5.20
2017-11-03T02:34:47.315Z,5.20
2017-11-03T02:37:13.747Z,5.30
2017-11-03T02:39:40.173Z,5.20
2017-11-03T02:42:06.622Z,5.20
2017-11-03T02:44:33.032Z,5.20
2017-11-03T02:46:59.448Z,5.20
2017-11-03T02:49:25.891Z,5.20
2017-11-03T02:51:52.300Z,5.30
2017-11-03T02:54:18.704Z,5.10
2017-11-03T02:56:45.108Z,5.10
2017-11-03T02:59:11.531Z,5.20
2017-11-03T03:01:38.012Z,5.30
2017-11-03T03:04:04.400Z,5.20
2017-11-03T03:06:31.582Z,5.00
2017-11-03T03:08:58.024Z,5.00
2017-11-03T03:11:24.479Z,4.90
2017-11-03T03:13:51.036Z,4.90
2017-11-03T03:16:17.480Z,4.90
2017-11-03T03:18:43.912Z,4.90
2017-11-03T03:21:10.359Z,4.90
2017-11-03T03:23:36.784Z,4.80
2017-11-03T03:26:03.196Z,4.80
2017-11-03T03:28:29.660Z,4.80
2017-11-03T03:30:56.163Z,4.70
2017-11-03T03:33:22.583Z,4.70
2017-11-03T03:35:49.741Z,4.60
2017-11-03T03:38:16.202Z,4.60
2017-11-03T03:40:42.632Z,4.60
2017-11-03T03:43:09.029Z,4.50
2017-11-03T03:45:37.323Z,4.40
2017-11-03T03:48:04.480Z,4.50
2017-11-03T03:50:30.983Z,4.50
2017-11-03T03:52:57.411Z,4.50
2017-11-03T03:55:24.548Z,4.50
2017-11-03T03:57:50.984Z,4.50
2017-11-03T04:00:17.480Z,4.40
2017-11-03T04:02:44.644Z,4.30
2017-11-03T04:05:11.084Z,4.30
2017-11-03T04:07:37.536Z,4.30
2017-11-03T04:10:03.947Z,4.30
2017-11-03T04:12:30.327Z,4.30
2017-11-03T04:14:56.863Z,4.20
2017-11-03T04:17:23.308Z,4.10
2017-11-03T04:19:49.710Z,4.20
2017-11-03T04:22:16.112Z,4.20
2017-11-03T04:24:42.604Z,4.10
2017-11-03T04:27:09.024Z,4.00
2017-11-03T04:29:35.545Z,3.90
2017-11-03T04:32:01.980Z,4.00
2017-11-03T04:34:28.409Z,4.10
2017-11-03T04:36:54.895Z,4.00
2017-11-03T04:39:21.322Z,3.90
2017-11-03T04:41:47.745Z,3.80
2017-11-03T04:44:14.149Z,3.80
2017-11-03T04:46:40.637Z,3.90
2017-11-03T04:49:07.829Z,3.90
2017-11-03T04:51:34.310Z,3.90
2017-11-03T04:54:00.729Z,3.90
2017-11-03T04:56:27.132Z,3.80
2017-11-03T04:58:54.669Z,3.70
2017-11-03T05:01:21.124Z,3.70
2017-11-03T05:03:47.640Z,3.60
2017-11-03T05:06:14.071Z,3.50
2017-11-03T05:08:40.482Z,3.50
2017-11-03T05:11:07.625Z,3.60
2017-11-03T05:13:34.791Z,3.60
2017-11-03T05:16:01.185Z,3.60
2017-11-03T05:18:27.568Z,3.60
2017-11-03T05:20:54.717Z,3.40
2017-11-03T05:23:21.119Z,3.40
2017-11-03T05:25:47.527Z,3.50
2017-11-03T05:28:13.923Z,3.40
2017-11-03T05:30:40.404Z,3.30
2017-11-03T05:33:06.831Z,3.40
2017-11-03T05:35:33.288Z,3.40
2017-11-03T05:37:59.760Z,3.30
2017-11-03T05:40:26.168Z,3.30
2017-11-03T05:42:53.416Z,3.10
2017-11-03T05:45:19.839Z,3.10
2017-11-03T05:47:46.424Z,3.20
2017-11-03T05:50:12.819Z,3.20
2017-11-03T05:52:39.986Z,3.30
2017-11-03T05:55:06.408Z,3.30
2017-11-03T05:57:32.820Z,3.30
2017-11-03T05:59:59.248Z,3.20
2017-11-03T06:02:25.624Z,3.10
2017-11-03T06:04:52.791Z,2.90
2017-11-03T06:07:19.339Z,2.90
2017-11-03T06:09:45.720Z,2.90
2017-11-03T06:12:12.259Z,2.80
2017-11-03T06:14:38.660Z,2.90
2017-11-03T06:17:05.060Z,2.80
2017-11-03T06:19:31.483Z,2.80
2017-11-03T06:21:58.570Z,2.70
2017-11-03T06:24:25.020Z,2.60
2017-11-03T06:26:51.504Z,2.70
2017-11-03T06:29:19.654Z,2.80
2017-11-03T06:31:46.096Z,2.70
2017-11-03T06:34:12.492Z,2.80
2017-11-03T06:36:38.930Z,2.80
2017-11-03T06:39:05.406Z,2.90
2017-11-03T06:41:31.830Z,2.90
2017-11-03T06:43:58.268Z,3.00
2017-11-03T06:46:24.711Z,3.10
2017-11-03T06:48:51.115Z,3.10
2017-11-03T06:51:17.528Z,3.30
2017-11-03T06:53:44.677Z,3.80
2017-11-03T06:56:11.809Z,3.90
2017-11-03T06:58:38.247Z,3.90
2017-11-03T07:01:04.708Z,4.00
2017-11-03T07:03:31.932Z,4.20
2017-11-03T07:05:58.371Z,4.20
2017-11-03T07:08:24.822Z,4.40
2017-11-03T07:10:51.269Z,4.50
2017-11-03T07:13:17.677Z,4.50
2017-11-03T07:15:44.828Z,4.70
2017-11-03T07:18:12.048Z,4.60
2017-11-03T07:20:38.430Z,4.60
2017-11-03T07:23:04.797Z,4.70
2017-11-03T07:25:31.307Z,4.80
2017-11-03T07:27:57.685Z,4.90
2017-11-03T07:30:24.084Z,4.90
2017-11-03T07:32:50.507Z,5.00
2017-11-03T07:35:16.931Z,5.10
2017-11-03T07:37:43.306Z,5.10
2017-11-03T07:40:09.712Z,5.10
2017-11-03T07:42:36.881Z,5.20
2017-11-03T07:45:03.299Z,5.20
2017-11-03T07:47:30.439Z,5.30
2017-11-03T07:49:56.815Z,5.30
2017-11-03T07:52:23.229Z,5.30
2017-11-03T07:54:49.636Z,5.30
2017-11-03T07:57:16.079Z,5.40
2017-11-03T07:59:42.527Z,5.30
2017-11-03T08:02:08.895Z,5.40
2017-11-03T08:04:35.372Z,5.60
2017-11-03T08:07:01.800Z,5.70
2017-11-03T08:09:28.199Z,5.80
2017-11-03T08:11:54.658Z,5.80
2017-11-03T08:14:21.100Z,5.80
2017-11-03T08:16:47.496Z,5.90
2017-11-03T08:19:14.672Z,6.20
2017-11-03T08:21:41.155Z,6.10
2017-11-03T08:24:07.527Z,6.10
2017-11-03T08:26:34.012Z,6.10
2017-11-03T08:29:00.405Z,6.10
2017-11-03T08:31:26.790Z,6.10
2017-11-03T08:33:53.258Z,6.20
2017-11-03T08:36:19.691Z,6.30
2017-11-03T08:38:46.106Z,6.30
2017-11-03T08:41:12.511Z,6.20
2017-11-03T08:43:38.938Z,6.30
2017-11-03T08:46:05.384Z,6.40
2017-11-03T08:48:31.803Z,6.50
2017-11-03T08:50:58.191Z,6.50
2017-11-03T08:53:24.627Z,6.50
2017-11-03T08:55:51.047Z,6.60
2017-11-03T08:58:17.499Z,6.60
2017-11-03T09:00:43.895Z,6.70
2017-11-03T09:03:10.347Z,6.70
2017-11-03T09:05:37.549Z,6.80
2017-11-03T09:08:04.004Z,6.80
2017-11-03T09:10:30.448Z,6.90
2017-11-03T09:12:56.884Z,6.80
2017-11-03T09:15:23.325Z,7.00
2017-11-03T09:17:49.779Z,7.00
2017-11-03T09:20:16.233Z,7.10
2017-11-03T09:22:42.654Z,7.00
2017-11-03T09:25:09.125Z,7.10
2017-11-03T09:27:35.647Z,7.20
2017-11-03T09:30:02.088Z,7.20
2017-11-03T09:32:28.529Z,7.20
2017-11-03T09:34:55.020Z,7.30
2017-11-03T09:37:21.423Z,7.30
2017-11-03T09:39:47.904Z,7.00
2017-11-03T09:42:14.379Z,7.00
2017-11-03T09:44:40.836Z,7.10
2017-11-03T09:47:08.016Z,7.10
2017-11-03T09:49:34.460Z,7.10
2017-11-03T09:52:00.931Z,7.20
2017-11-03T09:54:27.400Z,7.20
2017-11-03T09:56:53.835Z,7.20
2017-11-03T09:59:20.261Z,7.40
2017-11-03T10:01:46.695Z,7.30
2017-11-03T10:04:14.169Z,7.30
2017-11-03T10:06:41.335Z,7.50
2017-11-03T10:09:07.719Z,7.50
2017-11-03T10:11:34.903Z,7.70
2017-11-03T10:14:02.462Z,7.70
2017-11-03T10:16:29.103Z,7.60
2017-11-03T10:18:55.508Z,7.80
2017-11-03T10:21:21.971Z,7.80
2017-11-03T10:23:48.404Z,7.70
2017-11-03T10:26:14.843Z,7.90
2017-11-03T10:28:41.258Z,7.90
2017-11-03T10:31:08.463Z,7.90
2017-11-03T10:33:36.376Z,8.00
2017-11-03T10:36:02.836Z,8.00
2017-11-03T10:38:30.047Z,8.00
2017-11-03T10:40:56.496Z,8.00
2017-11-03T10:43:24.033Z,8.10
2017-11-03T10:45:51.224Z,8.20
2017-11-03T10:48:17.677Z,8.20
2017-11-03T10:50:44.115Z,8.20
2017-11-03T10:53:10.739Z,8.40
2017-11-03T10:55:37.195Z,8.50
2017-11-03T10:58:03.779Z,8.50
2017-11-03T11:00:30.240Z,8.50
2017-11-03T11:02:56.696Z,8.60
2017-11-03T11:05:23.863Z,8.80
2017-11-03T11:07:50.356Z,8.80
2017-11-03T11:10:16.795Z,8.80
2017-11-03T11:12:43.232Z,8.60
2017-11-03T11:15:09.643Z,8.70
2017-11-03T11:17:36.780Z,8.70
2017-11-03T11:20:03.254Z,8.70
2017-11-03T11:22:29.784Z,8.80
2017-11-03T11:24:57.707Z,9.00
2017-11-03T11:27:24.151Z,9.00
2017-11-03T11:29:50.622Z,9.10
2017-11-03T11:32:17.068Z,9.20
2017-11-03T11:34:43.499Z,9.30
2017-11-03T11:37:11.064Z,9.30
2017-11-03T11:39:37.469Z,9.40
2017-11-03T11:42:03.954Z,9.60
2017-11-03T11:44:30.364Z,9.70
2017-11-03T11:46:56.796Z,9.80
2017-11-03T11:49:23.224Z,9.80
2017-11-03T11:51:49.685Z,10.00
2017-11-03T11:54:16.084Z,10.00
2017-11-03T11:56:42.560Z,10.10
2017-11-03T11:59:09.010Z,10.10
2017-11-03T12:01:35.469Z,10.20
2017-11-03T12:04:01.875Z,10.20
2017-11-03T12:06:28.424Z,10.40
2017-11-03T12:08:54.863Z,10.40
2017-11-03T12:11:21.295Z,10.40
2017-11-03T12:13:47.812Z,10.30
2017-11-03T12:16:14.991Z,10.50
2017-11-03T12:18:41.439Z,10.40
2017-11-03T12:21:07.904Z,10.60
2017-11-03T12:23:34.371Z,10.70
2017-11-03T12:26:00.917Z,10.90
2017-11-03T12:28:27.436Z,11.00
2017-11-03T12:30:53.892Z,11.00
2017-11-03T12:33:20.316Z,11.00
2017-11-03T12:35:46.772Z,11.10
2017-11-03T12:38:13.240Z,11.20
2017-11-03T12:40:39.692Z,11.30
2017-11-03T12:43:06.188Z,11.30
2017-11-03T12:45:32.701Z,11.30
2017-11-03T12:47:59.131Z,11.40
2017-11-03T12:50:25.551Z,11.40
2017-11-03T12:52:51.988Z,11.50
2017-11-03T12:55:18.440Z,11.50
2017-11-03T12:57:45.012Z,11.50
2017-11-03T13:00:11.447Z,11.50
2017-11-03T13:02:37.865Z,11.50
2017-11-03T13:05:04.336Z,11.60
2017-11-03T13:07:30.833Z,11.60
2017-11-03T13:09:57.307Z,11.50
2017-11-03T13:12:23.804Z,11.50
2017-11-03T13:14:50.271Z,11.50
2017-11-03T13:17:17.662Z,11.50
2017-11-03T13:19:44.097Z,11.50
2017-11-03T13:22:10.597Z,11.50
2017-11-03T13:24:37.032Z,11.60
2017-11-03T13:27:04.604Z,11.50
2017-11-03T13:29:31.061Z,11.60
2017-11-03T13:31:57.491Z,11.50
2017-11-03T13:34:23.965Z,11.50
2017-11-03T13:36:50.395Z,11.50
2017-11-03T13:39:16.833Z,11.60
2017-11-03T13:41:43.265Z,11.60
2017-11-03T13:44:09.695Z,11.60
2017-11-03T13:46:36.183Z,11.60
2017-11-03T13:49:02.642Z,11.50
2017-11-03T13:51:30.764Z,11.50
2017-11-03T13:53:57.268Z,11.50
2017-11-03T13:56:23.708Z,11.50
2017-11-03T13:58:51.146Z,11.50
2017-11-03T14:01:17.615Z,11.50
2017-11-03T14:03:44.076Z,11.50
2017-11-03T14:06:10.488Z,11.40
2017-11-03T14:08:36.939Z,11.50
2017-11-03T14:11:03.360Z,11.50
2017-11-03T14:13:29.772Z,11.50
2017-11-03T14:15:56.945Z,11.50
2017-11-03T14:18:23.353Z,11.50
2017-11-03T14:20:49.755Z,11.50
2017-11-03T14:23:16.196Z,11.50
2017-11-03T14:25:42.588Z,11.40
2017-11-03T14:28:09.036Z,11.50
2017-11-03T14:30:36.192Z,11.50
2017-11-03T14:33:02.602Z,11.50
2017-11-03T14:35:29.020Z,11.40
2017-11-03T14:37:55.539Z,11.30
2017-11-03T14:40:23.818Z,11.30
2017-11-03T14:42:50.279Z,11.30
2017-11-03T14:45:16.707Z,11.30
2017-11-03T14:47:43.116Z,11.20
2017-11-03T14:50:09.536Z,11.20
2017-11-03T14:52:35.933Z,11.10
2017-11-03T14:55:02.323Z,11.10
2017-11-03T14:57:28.731Z,11.10
2017-11-03T14:59:55.910Z,11.00
2017-11-03T15:02:23.103Z,11.00
2017-11-03T15:04:49.497Z,11.00
2017-11-03T15:07:16.656Z,10.90
2017-11-03T15:09:43.111Z,10.90
2017-11-03T15:12:09.542Z,10.80
2017-11-03T15:14:36.763Z,10.70
2017-11-03T15:17:03.222Z,10.70
2017-11-03T15:19:29.630Z,10.70
2017-11-03T15:21:56.131Z,10.80
2017-11-03T15:24:22.551Z,10.70
2017-11-03T15:26:48.892Z,10.70
2017-11-03T15:29:15.343Z,10.70
2017-11-03T15:31:41.754Z,10.70
2017-11-03T15:34:08.936Z,10.60
2017-11-03T15:36:35.434Z,10.60
2017-11-03T15:39:01.867Z,10.50
2017-11-03T15:41:28.320Z,10.50
2017-11-03T15:43:54.803Z,10.60
2017-11-03T15:46:21.276Z,10.60
2017-11-03T15:48:47.708Z,10.60
2017-11-03T15:51:14.235Z,10.50
2017-11-03T15:53:40.681Z,10.50
2017-11-03T15:56:07.149Z,10.50
2017-11-03T15:58:33.572Z,10.40
2017-11-03T16:01:00.058Z,10.40
2017-11-03T16:03:27.294Z,10.40
2017-11-03T16:05:53.821Z,10.30
2017-11-03T16:08:20.348Z,10.40
2017-11-03T16:10:46.756Z,10.30
2017-11-03T16:13:13.530Z,10.40
2017-11-03T16:15:40.310Z,10.30
2017-11-03T16:18:06.807Z,10.20
2017-11-03T16:20:33.388Z,10.30
2017-11-03T16:23:00.817Z,10.20
2017-11-03T16:25:27.948Z,10.20
2017-11-03T16:27:54.859Z,10.20
2017-11-03T16:30:21.458Z,10.20
2017-11-03T16:32:49.535Z,10.10
2017-11-03T16:35:16.799Z,10.00
2017-11-03T16:37:45.279Z,9.80
2017-11-03T16:40:13.733Z,9.80
2017-11-03T16:42:41.461Z,9.80
2017-11-03T16:45:08.829Z,9.90
2017-11-03T16:47:38.117Z,9.60
2017-11-03T16:50:06.914Z,9.50
2017-11-03T16:52:36.589Z,9.40
2017-11-03T16:55:05.185Z,9.40
2017-11-03T16:57:34.402Z,9.40
2017-11-03T17:00:02.303Z,9.20
2017-11-03T17:02:30.167Z,9.00
2017-11-03T17:04:58.939Z,9.00
2017-11-03T17:07:27.470Z,8.90
2017-11-03T17:09:57.192Z,8.80
2017-11-03T17:12:26.188Z,8.80
2017-11-03T17:14:55.904Z,8.70
2017-11-03T17:17:25.845Z,8.70
2017-11-03T17:19:55.443Z,8.60
2017-11-03T17:22:24.265Z,8.50
2017-11-03T17:24:54.306Z,8.40
2017-11-03T17:27:24.027Z,8.20
2017-11-03T17:29:52.913Z,8.20
2017-11-03T17:32:21.908Z,8.20
2017-11-03T17:34:50.724Z,8.10
2017-11-03T17:37:19.512Z,8.20
2017-11-03T17:39:49.349Z,8.00
2017-11-03T17:42:18.239Z,8.00
2017-11-03T17:44:47.972Z,7.80
2017-11-03T17:47:16.758Z,7.80
2017-11-03T17:49:45.733Z,7.70
2017-11-03T17:52:14.696Z,7.60
2017-11-03T17:54:43.657Z,7.50
2017-11-03T17:57:15.961Z,7.50
2017-11-03T17:59:45.072Z,7.50
2017-11-03T18:02:14.659Z,7.50
2017-11-03T18:04:43.676Z,7.50
2017-11-03T18:07:14.232Z,7.40
2017-11-03T18:09:43.453Z,7.40
2017-11-03T18:12:13.409Z,7.30
2017-11-03T18:14:42.116Z,7.30
2017-11-03T18:17:11.817Z,7.20
2017-11-03T18:19:41.679Z,7.10
2017-11-03T18:22:11.058Z,7.10
2017-11-03T18:24:39.662Z,7.10
2017-11-03T18:27:08.938Z,7.00
2017-11-03T18:29:39.000Z,7.00
2017-11-03T18:32:09.006Z,6.90
2017-11-03T18:34:38.733Z,6.90
2017-11-03T18:37:07.311Z,6.90
2017-11-03T18:39:35.926Z,6.90
2017-11-03T18:42:04.616Z,6.80
2017-11-03T18:44:34.648Z,6.70
2017-11-03T18:47:04.831Z,6.60
2017-11-03T18:49:34.150Z,6.60
2017-11-03T18:52:03.308Z,6.50
2017-11-03T18:54:32.430Z,6.60
2017-11-03T18:57:01.325Z,6.40
2017-11-03T18:59:30.234Z,6.50
2017-11-03T19:01:59.210Z,6.40
2017-11-03T19:04:28.103Z,6.30
2017-11-03T19:06:57.166Z,6.30
2017-11-03T19:09:25.746Z,6.20
2017-11-03T19:11:55.228Z,6.20
2017-11-03T19:14:25.004Z,6.10
2017-11-03T19:16:53.939Z,6.10
2017-11-03T19:19:22.790Z,6.20
2017-11-03T19:21:53.106Z,6.20
2017-11-03T19:24:23.160Z,6.20
2017-11-03T19:26:51.883Z,6.10
2017-11-03T19:29:20.735Z,6.10
2017-11-03T19:31:50.274Z,6.10
2017-11-03T19:34:19.766Z,6.10
2017-11-03T19:36:48.454Z,6.10
2017-11-03T19:39:18.192Z,6.10
2017-11-03T19:41:47.925Z,6.10
2017-11-03T19:44:17.850Z,6.00
2017-11-03T19:46:46.850Z,6.00
2017-11-03T19:49:16.391Z,6.00
2017-11-03T19:51:45.536Z,6.00
2017-11-03T19:54:14.404Z,6.00
2017-11-03T19:56:43.306Z,5.90
2017-11-03T19:59:13.211Z,5.90
2017-11-03T20:01:42.238Z,5.80
2017-11-03T20:04:11.059Z,5.80
2017-11-03T20:06:40.479Z,5.90
2017-11-03T20:09:09.438Z,5.80
2017-11-03T20:11:38.637Z,5.80
2017-11-03T20:14:08.474Z,5.80
2017-11-03T20:16:37.007Z,5.70
2017-11-03T20:19:05.687Z,5.70
2017-11-03T20:21:34.879Z,5.70
2017-11-03T20:24:04.082Z,5.60
2017-11-03T20:26:32.979Z,5.70
2017-11-03T20:29:02.711Z,5.60
2017-11-03T20:31:31.517Z,5.60
2017-11-03T20:34:00.528Z,5.70
2017-11-03T20:36:29.622Z,5.70
2017-11-03T20:39:00.683Z,5.50
2017-11-03T20:41:29.423Z,5.50
2017-11-03T20:43:58.829Z,5.40
2017-11-03T20:46:27.890Z,5.40
2017-11-03T20:48:57.306Z,5.20
2017-11-03T20:51:28.185Z,5.10
2017-11-03T20:53:57.870Z,5.10
2017-11-03T20:56:27.600Z,5.20
2017-11-03T20:58:56.928Z,5.20
2017-11-03T21:01:28.495Z,5.20
2017-11-03T21:03:58.159Z,5.20
2017-11-03T21:06:26.987Z,5.20
2017-11-03T21:08:56.423Z,5.30
2017-11-03T21:11:26.024Z,5.10
2017-11-03T21:13:55.058Z,5.10
2017-11-03T21:16:24.037Z,5.00
2017-11-03T21:18:53.738Z,5.00
2017-11-03T21:21:23.317Z,4.90
2017-11-03T21:23:51.995Z,4.90
2017-11-03T21:26:21.206Z,4.90
2017-11-03T21:28:51.627Z,4.80
2017-11-03T21:31:20.642Z,4.90
2017-11-03T21:33:49.703Z,4.90
2017-11-03T21:36:18.749Z,4.80
2017-11-03T21:38:48.257Z,4.70
2017-11-03T21:41:16.272Z,4.70
2017-11-03T21:43:46.077Z,4.70
2017-11-03T21:46:14.982Z,4.70
2017-11-03T21:48:44.040Z,4.70
2017-11-03T21:51:13.521Z,4.70
2017-11-03T21:53:42.403Z,4.60
2017-11-03T21:56:12.239Z,4.50
2017-11-03T21:58:42.050Z,4.50
2017-11-03T22:01:11.729Z,4.50
2017-11-03T22:03:40.485Z,4.50
2017-11-03T22:06:10.004Z,4.40
2017-11-03T22:08:38.599Z,4.40
2017-11-03T22:11:08.192Z,4.40
2017-11-03T22:13:37.089Z,4.30
2017-11-03T22:16:06.887Z,4.30
2017-11-03T22:18:35.971Z,4.30
2017-11-03T22:21:05.088Z,4.40
2017-11-03T22:23:33.980Z,4.40
2017-11-03T22:26:02.966Z,4.30
2017-11-03T22:28:31.957Z,4.30
2017-11-03T22:31:01.256Z,4.30
2017-11-03T22:33:30.288Z,4.50
2017-11-03T22:35:59.620Z,4.50
2017-11-03T22:38:27.789Z,4.40
2017-11-03T22:40:56.619Z,4.30
2017-11-03T22:43:24.705Z,4.20
2017-11-03T22:45:52.633Z,4.30
2017-11-03T22:48:21.437Z,4.40
2017-11-03T22:50:51.255Z,4.40
2017-11-03T22:53:20.022Z,4.30
2017-11-03T22:55:47.786Z,4.60
2017-11-03T22:58:16.383Z,4.50
2017-11-03T23:00:43.963Z,4.50
2017-11-03T23:03:10.441Z,4.40
2017-11-03T23:05:38.074Z,4.40
2017-11-03T23:08:04.537Z,4.40
2017-11-03T23:10:30.990Z,4.50
2017-11-03T23:12:57.971Z,4.50
2017-11-03T23:15:26.254Z,4.50
2017-11-03T23:17:52.707Z,4.30
2017-11-03T23:20:19.884Z,4.50
2017-11-03T23:22:46.236Z,4.50
2017-11-03T23:25:13.412Z,4.30
2017-11-03T23:27:39.879Z,4.30
2017-11-03T23:30:06.296Z,4.30
2017-11-03T23:32:32.741Z,4.40
2017-11-03T23:34:59.165Z,4.30
2017-11-03T23:37:25.592Z,4.20
2017-11-03T23:39:52.030Z,4.20
2017-11-03T23:42:18.517Z,4.20
2017-11-03T23:44:44.982Z,4.20
2017-11-03T23:47:11.448Z,4.30
2017-11-03T23:49:37.891Z,4.20
2017-11-03T23:52:04.313Z,4.20
2017-11-03T23:54:30.771Z,4.10
2017-11-03T23:56:57.211Z,4.20
2017-11-03T23:59:24.288Z,4.10
